TFM - Tactical Decision Aid (Experimental) INFO Settings
ID: Runway Winds: CIG/VIS Threshold: METAR Board: Map:

KIAD - Washington-Dulles Intl

Updated at: 0643 UTC 03 Dec 2016
Latest TAF at: 0527 UTC 03 Dec 2016

TAF Board

Time0000Z03/07Z03/08Z03/09Z03/10Z03/11Z03/12Z03/13Z03/14Z03/15Z03/16Z03/17Z03/18Z03/19Z
TypeOBSPRVLPRVLPRVLPRVLPRVLPRVLPRVLPRVLPRVLPRVLPRVLPRVLPRVL
VIS>6>6>6>6>6>6>6>6>6>6>6>6>6
CIG50505050505050505050505050
CoverBKNBKNBKNBKNBKNBKNBKNBKNBKNBKNBKNBKNBKN
FltCatVFRVFRVFRVFRVFRVFRVFRVFRVFRVFRVFRVFRVFR
WX--------------------------
WDir290290290290290290290300300300300300300
WSpd10101010101010121212121212
WGst--------------222222222222
TAF
KIAD 030527Z 0306/0412 29010KT P6SM BKN050
  FM031400 30012G22KT P6SM BKN050
  FM032300 30005KT P6SM SCT050 SCT200


METAR


TAF/METAR Board Legend

Potential Impact
  None Marginal Slight Moderate High
Visibility (sm) >5 3≤X≤5 1≤X<3 0.5≤X<1 <0.5
Ceiling (100 ft) >30 10≤X≤30 4≤X<10 2≤X<4 <2
Wind Speed (kt) <10 10≤X<20 20≤X<30 ≥30
Wind Gust (kt) <15 15≤X<25 25≤X<35 ≥35
Weather No Wx Reported VCTS -TS,-FZRA TS,FZRA +TS,+FZRA




Page loaded:  06:43 UTC  |   10:43 PM Pacific  |   11:43 PM Mountain  |   12:43 AM Central  |   01:43 AM Eastern